sensor_id;sensor_type;location;lat;lon;timestamp;P1;durP1;ratioP1;P2;durP2;ratioP2
32186;SDS011;18686;53.084;8.872;2023-04-19T00:01:04;6.75;;;3.90;;
32186;SDS011;18686;53.084;8.872;2023-04-19T00:03:32;6.20;;;3.70;;
32186;SDS011;18686;53.084;8.872;2023-04-19T00:06:03;6.05;;;3.60;;
32186;SDS011;18686;53.084;8.872;2023-04-19T00:08:33;7.30;;;3.85;;
32186;SDS011;18686;53.084;8.872;2023-04-19T00:11:01;7.93;;;3.72;;
32186;SDS011;18686;53.084;8.872;2023-04-19T00:13:31;6.47;;;3.90;;
32186;SDS011;18686;53.084;8.872;2023-04-19T00:15:59;7.22;;;4.80;;
32186;SDS011;18686;53.084;8.872;2023-04-19T00:18:27;6.32;;;4.63;;
32186;SDS011;18686;53.084;8.872;2023-04-19T00:20:55;6.28;;;3.92;;
32186;SDS011;18686;53.084;8.872;2023-04-19T00:23:23;8.85;;;4.45;;
32186;SDS011;18686;53.084;8.872;2023-04-19T00:25:52;8.23;;;4.40;;
32186;SDS011;18686;53.084;8.872;2023-04-19T00:28:20;6.45;;;4.40;;
32186;SDS011;18686;53.084;8.872;2023-04-19T00:30:49;9.43;;;5.03;;
32186;SDS011;18686;53.084;8.872;2023-04-19T00:33:18;5.88;;;4.00;;
32186;SDS011;18686;53.084;8.872;2023-04-19T00:35:47;5.63;;;4.07;;
32186;SDS011;18686;53.084;8.872;2023-04-19T00:38:15;6.50;;;4.50;;
32186;SDS011;18686;53.084;8.872;2023-04-19T00:40:43;8.25;;;4.63;;
32186;SDS011;18686;53.084;8.872;2023-04-19T00:43:15;6.43;;;4.43;;
32186;SDS011;18686;53.084;8.872;2023-04-19T00:45:45;7.88;;;5.03;;
32186;SDS011;18686;53.084;8.872;2023-04-19T00:48:18;8.40;;;4.88;;
32186;SDS011;18686;53.084;8.872;2023-04-19T00:50:46;7.53;;;4.75;;
32186;SDS011;18686;53.084;8.872;2023-04-19T00:53:16;6.28;;;4.15;;
32186;SDS011;18686;53.084;8.872;2023-04-19T00:55:45;6.55;;;4.07;;
32186;SDS011;18686;53.084;8.872;2023-04-19T00:58:14;6.93;;;4.80;;
32186;SDS011;18686;53.084;8.872;2023-04-19T01:00:42;9.55;;;4.22;;
32186;SDS011;18686;53.084;8.872;2023-04-19T01:03:11;8.32;;;4.30;;
32186;SDS011;18686;53.084;8.872;2023-04-19T01:05:42;6.45;;;4.03;;
32186;SDS011;18686;53.084;8.872;2023-04-19T01:08:11;5.90;;;4.13;;
32186;SDS011;18686;53.084;8.872;2023-04-19T01:10:39;5.72;;;3.97;;
32186;SDS011;18686;53.084;8.872;2023-04-19T01:13:07;8.23;;;4.53;;
32186;SDS011;18686;53.084;8.872;2023-04-19T01:15:36;9.25;;;5.45;;
32186;SDS011;18686;53.084;8.872;2023-04-19T01:18:04;13.10;;;6.75;;
32186;SDS011;18686;53.084;8.872;2023-04-19T01:20:32;6.88;;;5.22;;
32186;SDS011;18686;53.084;8.872;2023-04-19T01:23:02;7.68;;;4.80;;
32186;SDS011;18686;53.084;8.872;2023-04-19T01:25:31;7.43;;;4.93;;
32186;SDS011;18686;53.084;8.872;2023-04-19T01:27:59;6.38;;;4.65;;
32186;SDS011;18686;53.084;8.872;2023-04-19T01:30:27;6.78;;;4.35;;
32186;SDS011;18686;53.084;8.872;2023-04-19T01:32:55;7.82;;;5.13;;
32186;SDS011;18686;53.084;8.872;2023-04-19T01:35:23;12.20;;;5.20;;
32186;SDS011;18686;53.084;8.872;2023-04-19T01:37:52;8.93;;;4.65;;
32186;SDS011;18686;53.084;8.872;2023-04-19T01:40:23;7.93;;;5.40;;
32186;SDS011;18686;53.084;8.872;2023-04-19T01:42:52;7.63;;;5.18;;
32186;SDS011;18686;53.084;8.872;2023-04-19T01:45:20;8.98;;;5.68;;
32186;SDS011;18686;53.084;8.872;2023-04-19T01:47:49;7.90;;;4.93;;
32186;SDS011;18686;53.084;8.872;2023-04-19T01:50:18;8.50;;;4.78;;
32186;SDS011;18686;53.084;8.872;2023-04-19T01:52:46;9.48;;;5.60;;
32186;SDS011;18686;53.084;8.872;2023-04-19T01:55:14;7.00;;;5.38;;
32186;SDS011;18686;53.084;8.872;2023-04-19T01:57:46;6.82;;;5.10;;
32186;SDS011;18686;53.084;8.872;2023-04-19T02:00:14;9.48;;;5.70;;
32186;SDS011;18686;53.084;8.872;2023-04-19T02:02:45;7.88;;;4.93;;
32186;SDS011;18686;53.084;8.872;2023-04-19T02:05:14;8.05;;;5.40;;
32186;SDS011;18686;53.084;8.872;2023-04-19T02:07:42;11.32;;;6.07;;
32186;SDS011;18686;53.084;8.872;2023-04-19T02:10:10;10.13;;;5.38;;
32186;SDS011;18686;53.084;8.872;2023-04-19T02:12:39;8.10;;;5.65;;
32186;SDS011;18686;53.084;8.872;2023-04-19T02:15:09;9.02;;;5.20;;
32186;SDS011;18686;53.084;8.872;2023-04-19T02:17:38;10.65;;;5.20;;
32186;SDS011;18686;53.084;8.872;2023-04-19T02:20:07;7.05;;;5.18;;
32186;SDS011;18686;53.084;8.872;2023-04-19T02:22:36;7.65;;;5.55;;
32186;SDS011;18686;53.084;8.872;2023-04-19T02:25:05;9.73;;;5.57;;
32186;SDS011;18686;53.084;8.872;2023-04-19T02:27:34;8.13;;;4.90;;
32186;SDS011;18686;53.084;8.872;2023-04-19T02:30:02;6.25;;;5.07;;
32186;SDS011;18686;53.084;8.872;2023-04-19T02:32:33;8.15;;;5.38;;
32186;SDS011;18686;53.084;8.872;2023-04-19T02:35:05;9.27;;;6.55;;
32186;SDS011;18686;53.084;8.872;2023-04-19T02:37:33;10.70;;;7.13;;
32186;SDS011;18686;53.084;8.872;2023-04-19T02:40:01;11.13;;;6.03;;
32186;SDS011;18686;53.084;8.872;2023-04-19T02:42:30;8.43;;;5.72;;
32186;SDS011;18686;53.084;8.872;2023-04-19T02:44:58;12.30;;;6.20;;
32186;SDS011;18686;53.084;8.872;2023-04-19T02:47:27;8.40;;;5.50;;
32186;SDS011;18686;53.084;8.872;2023-04-19T02:49:56;10.27;;;6.40;;
32186;SDS011;18686;53.084;8.872;2023-04-19T02:52:26;12.13;;;6.03;;
32186;SDS011;18686;53.084;8.872;2023-04-19T02:54:54;9.65;;;5.82;;
32186;SDS011;18686;53.084;8.872;2023-04-19T02:57:22;11.05;;;6.10;;
32186;SDS011;18686;53.084;8.872;2023-04-19T02:59:51;9.60;;;6.00;;
32186;SDS011;18686;53.084;8.872;2023-04-19T03:02:19;9.77;;;5.60;;
32186;SDS011;18686;53.084;8.872;2023-04-19T03:04:47;9.48;;;5.88;;
32186;SDS011;18686;53.084;8.872;2023-04-19T03:07:17;30.85;;;19.77;;
32186;SDS011;18686;53.084;8.872;2023-04-19T03:09:45;21.45;;;13.60;;
32186;SDS011;18686;53.084;8.872;2023-04-19T03:12:14;17.27;;;10.25;;
32186;SDS011;18686;53.084;8.872;2023-04-19T03:14:42;11.05;;;7.65;;
32186;SDS011;18686;53.084;8.872;2023-04-19T03:17:10;9.40;;;6.47;;
32186;SDS011;18686;53.084;8.872;2023-04-19T03:19:42;12.75;;;5.90;;
32186;SDS011;18686;53.084;8.872;2023-04-19T03:22:10;13.35;;;5.85;;
32186;SDS011;18686;53.084;8.872;2023-04-19T03:24:40;11.02;;;5.72;;
32186;SDS011;18686;53.084;8.872;2023-04-19T03:27:16;7.55;;;6.10;;
32186;SDS011;18686;53.084;8.872;2023-04-19T03:30:07;8.20;;;6.03;;
32186;SDS011;18686;53.084;8.872;2023-04-19T03:32:36;9.73;;;6.50;;
32186;SDS011;18686;53.084;8.872;2023-04-19T03:35:06;9.43;;;5.57;;
32186;SDS011;18686;53.084;8.872;2023-04-19T03:37:35;8.30;;;5.20;;
32186;SDS011;18686;53.084;8.872;2023-04-19T03:40:05;8.20;;;5.70;;
32186;SDS011;18686;53.084;8.872;2023-04-19T03:42:35;9.27;;;6.25;;
32186;SDS011;18686;53.084;8.872;2023-04-19T03:45:15;7.72;;;5.88;;
32186;SDS011;18686;53.084;8.872;2023-04-19T03:47:46;11.80;;;6.03;;
32186;SDS011;18686;53.084;8.872;2023-04-19T03:50:14;8.52;;;6.00;;
32186;SDS011;18686;53.084;8.872;2023-04-19T03:52:46;13.07;;;5.82;;
32186;SDS011;18686;53.084;8.872;2023-04-19T03:55:17;9.77;;;5.53;;
32186;SDS011;18686;53.084;8.872;2023-04-19T03:57:45;7.82;;;5.60;;
32186;SDS011;18686;53.084;8.872;2023-04-19T04:00:29;9.75;;;5.80;;
32186;SDS011;18686;53.084;8.872;2023-04-19T04:02:59;8.43;;;5.22;;
32186;SDS011;18686;53.084;8.872;2023-04-19T04:05:27;10.95;;;6.07;;
32186;SDS011;18686;53.084;8.872;2023-04-19T04:07:56;6.95;;;5.35;;
32186;SDS011;18686;53.084;8.872;2023-04-19T04:10:26;7.97;;;5.60;;
32186;SDS011;18686;53.084;8.872;2023-04-19T04:12:55;10.85;;;6.22;;
32186;SDS011;18686;53.084;8.872;2023-04-19T04:15:34;9.15;;;6.05;;
32186;SDS011;18686;53.084;8.872;2023-04-19T04:18:03;7.40;;;5.65;;
32186;SDS011;18686;53.084;8.872;2023-04-19T04:20:35;11.73;;;6.28;;
32186;SDS011;18686;53.084;8.872;2023-04-19T04:23:07;8.60;;;6.05;;
32186;SDS011;18686;53.084;8.872;2023-04-19T04:25:41;8.82;;;6.13;;
32186;SDS011;18686;53.084;8.872;2023-04-19T04:28:11;13.82;;;7.03;;
32186;SDS011;18686;53.084;8.872;2023-04-19T04:30:40;9.48;;;6.97;;
32186;SDS011;18686;53.084;8.872;2023-04-19T04:33:10;10.88;;;6.45;;
32186;SDS011;18686;53.084;8.872;2023-04-19T04:35:41;12.18;;;6.00;;
32186;SDS011;18686;53.084;8.872;2023-04-19T04:40:53;8.35;;;5.60;;
32186;SDS011;18686;53.084;8.872;2023-04-19T04:43:22;5.72;;;4.95;;
32186;SDS011;18686;53.084;8.872;2023-04-19T04:45:54;10.20;;;5.75;;
32186;SDS011;18686;53.084;8.872;2023-04-19T04:48:25;8.68;;;5.60;;
32186;SDS011;18686;53.084;8.872;2023-04-19T04:50:53;8.80;;;5.50;;
32186;SDS011;18686;53.084;8.872;2023-04-19T04:55:58;9.93;;;5.40;;
32186;SDS011;18686;53.084;8.872;2023-04-19T04:58:27;9.32;;;5.72;;
32186;SDS011;18686;53.084;8.872;2023-04-19T05:01:02;8.52;;;5.93;;
32186;SDS011;18686;53.084;8.872;2023-04-19T05:03:35;8.07;;;6.03;;
32186;SDS011;18686;53.084;8.872;2023-04-19T05:06:07;9.45;;;6.10;;
32186;SDS011;18686;53.084;8.872;2023-04-19T05:08:35;8.50;;;5.90;;
32186;SDS011;18686;53.084;8.872;2023-04-19T05:11:31;7.67;;;5.67;;
32186;SDS011;18686;53.084;8.872;2023-04-19T05:14:00;8.70;;;6.22;;
32186;SDS011;18686;53.084;8.872;2023-04-19T05:16:31;10.93;;;7.13;;
32186;SDS011;18686;53.084;8.872;2023-04-19T05:19:01;15.20;;;8.77;;
32186;SDS011;18686;53.084;8.872;2023-04-19T05:21:33;10.02;;;7.22;;
32186;SDS011;18686;53.084;8.872;2023-04-19T05:24:04;10.35;;;6.90;;
32186;SDS011;18686;53.084;8.872;2023-04-19T05:26:34;7.65;;;5.97;;
32186;SDS011;18686;53.084;8.872;2023-04-19T05:29:04;9.13;;;6.38;;
32186;SDS011;18686;53.084;8.872;2023-04-19T05:31:40;9.15;;;6.60;;
32186;SDS011;18686;53.084;8.872;2023-04-19T05:34:17;10.05;;;6.05;;
32186;SDS011;18686;53.084;8.872;2023-04-19T05:36:47;9.88;;;7.18;;
32186;SDS011;18686;53.084;8.872;2023-04-19T05:39:16;11.82;;;7.10;;
32186;SDS011;18686;53.084;8.872;2023-04-19T05:41:45;11.30;;;7.10;;
32186;SDS011;18686;53.084;8.872;2023-04-19T05:44:13;12.00;;;6.93;;
32186;SDS011;18686;53.084;8.872;2023-04-19T05:46:42;10.65;;;6.40;;
32186;SDS011;18686;53.084;8.872;2023-04-19T05:49:13;10.65;;;6.53;;
32186;SDS011;18686;53.084;8.872;2023-04-19T05:52:01;10.05;;;6.22;;
32186;SDS011;18686;53.084;8.872;2023-04-19T05:54:43;9.95;;;6.18;;
32186;SDS011;18686;53.084;8.872;2023-04-19T05:57:13;10.63;;;6.70;;
32186;SDS011;18686;53.084;8.872;2023-04-19T05:59:41;7.55;;;5.47;;
32186;SDS011;18686;53.084;8.872;2023-04-19T06:02:11;9.35;;;6.38;;
32186;SDS011;18686;53.084;8.872;2023-04-19T06:04:39;8.73;;;5.60;;
32186;SDS011;18686;53.084;8.872;2023-04-19T06:07:10;8.73;;;5.65;;
32186;SDS011;18686;53.084;8.872;2023-04-19T06:09:52;7.25;;;5.10;;
32186;SDS011;18686;53.084;8.872;2023-04-19T06:12:22;9.75;;;5.75;;
32186;SDS011;18686;53.084;8.872;2023-04-19T06:14:50;12.98;;;5.60;;
32186;SDS011;18686;53.084;8.872;2023-04-19T06:17:19;6.22;;;4.55;;
32186;SDS011;18686;53.084;8.872;2023-04-19T06:19:50;7.65;;;4.72;;
32186;SDS011;18686;53.084;8.872;2023-04-19T06:22:18;7.35;;;5.07;;
32186;SDS011;18686;53.084;8.872;2023-04-19T06:24:46;7.10;;;4.88;;
32186;SDS011;18686;53.084;8.872;2023-04-19T06:27:15;7.97;;;4.47;;
32186;SDS011;18686;53.084;8.872;2023-04-19T06:29:44;6.90;;;4.28;;
32186;SDS011;18686;53.084;8.872;2023-04-19T06:32:16;8.07;;;4.50;;
32186;SDS011;18686;53.084;8.872;2023-04-19T06:34:44;7.82;;;3.58;;
32186;SDS011;18686;53.084;8.872;2023-04-19T06:37:12;7.57;;;4.35;;
32186;SDS011;18686;53.084;8.872;2023-04-19T06:39:44;8.63;;;3.83;;
32186;SDS011;18686;53.084;8.872;2023-04-19T06:42:12;5.68;;;3.60;;
32186;SDS011;18686;53.084;8.872;2023-04-19T06:44:40;4.18;;;3.20;;
32186;SDS011;18686;53.084;8.872;2023-04-19T06:47:09;7.15;;;3.97;;
32186;SDS011;18686;53.084;8.872;2023-04-19T06:49:37;5.00;;;3.55;;
32186;SDS011;18686;53.084;8.872;2023-04-19T06:52:05;5.72;;;3.20;;
32186;SDS011;18686;53.084;8.872;2023-04-19T06:54:34;8.82;;;2.80;;
32186;SDS011;18686;53.084;8.872;2023-04-19T06:57:02;4.82;;;2.90;;
32186;SDS011;18686;53.084;8.872;2023-04-19T06:59:30;3.83;;;2.67;;
32186;SDS011;18686;53.084;8.872;2023-04-19T07:01:58;4.93;;;2.90;;
32186;SDS011;18686;53.084;8.872;2023-04-19T07:04:28;2.50;;;2.20;;
32186;SDS011;18686;53.084;8.872;2023-04-19T07:06:56;3.90;;;2.45;;
32186;SDS011;18686;53.084;8.872;2023-04-19T07:09:25;5.22;;;2.53;;
32186;SDS011;18686;53.084;8.872;2023-04-19T07:11:54;4.30;;;2.50;;
32186;SDS011;18686;53.084;8.872;2023-04-19T07:14:22;2.78;;;2.30;;
32186;SDS011;18686;53.084;8.872;2023-04-19T07:16:51;3.58;;;2.20;;
32186;SDS011;18686;53.084;8.872;2023-04-19T07:19:19;4.22;;;2.50;;
32186;SDS011;18686;53.084;8.872;2023-04-19T07:21:49;4.10;;;2.35;;
32186;SDS011;18686;53.084;8.872;2023-04-19T07:24:18;4.60;;;2.20;;
32186;SDS011;18686;53.084;8.872;2023-04-19T07:26:46;4.43;;;2.17;;
32186;SDS011;18686;53.084;8.872;2023-04-19T07:29:14;4.05;;;2.38;;
32186;SDS011;18686;53.084;8.872;2023-04-19T07:31:42;3.20;;;1.80;;
32186;SDS011;18686;53.084;8.872;2023-04-19T07:34:10;3.13;;;1.70;;
32186;SDS011;18686;53.084;8.872;2023-04-19T07:36:38;3.83;;;1.60;;
32186;SDS011;18686;53.084;8.872;2023-04-19T07:39:08;2.63;;;1.63;;
32186;SDS011;18686;53.084;8.872;2023-04-19T07:41:36;3.63;;;1.77;;
32186;SDS011;18686;53.084;8.872;2023-04-19T07:44:04;4.60;;;1.98;;
32186;SDS011;18686;53.084;8.872;2023-04-19T07:46:33;2.47;;;1.70;;
32186;SDS011;18686;53.084;8.872;2023-04-19T07:49:01;3.13;;;1.80;;
32186;SDS011;18686;53.084;8.872;2023-04-19T07:51:29;2.95;;;1.60;;
32186;SDS011;18686;53.084;8.872;2023-04-19T07:53:57;4.57;;;1.65;;
32186;SDS011;18686;53.084;8.872;2023-04-19T07:56:27;3.30;;;1.20;;
32186;SDS011;18686;53.084;8.872;2023-04-19T07:58:55;3.20;;;1.20;;
32186;SDS011;18686;53.084;8.872;2023-04-19T08:01:34;13.30;;;2.33;;
32186;SDS011;18686;53.084;8.872;2023-04-19T08:04:04;8.90;;;2.42;;
32186;SDS011;18686;53.084;8.872;2023-04-19T08:06:33;1.95;;;1.30;;
32186;SDS011;18686;53.084;8.872;2023-04-19T08:09:03;2.33;;;1.60;;
32186;SDS011;18686;53.084;8.872;2023-04-19T08:11:33;1.88;;;1.40;;
32186;SDS011;18686;53.084;8.872;2023-04-19T08:14:01;2.85;;;1.58;;
32186;SDS011;18686;53.084;8.872;2023-04-19T08:16:43;3.30;;;1.30;;
32186;SDS011;18686;53.084;8.872;2023-04-19T08:19:14;2.63;;;1.08;;
32186;SDS011;18686;53.084;8.872;2023-04-19T08:21:43;2.55;;;1.00;;
32186;SDS011;18686;53.084;8.872;2023-04-19T08:24:11;0.90;;;0.80;;
32186;SDS011;18686;53.084;8.872;2023-04-19T08:26:40;1.45;;;0.80;;
32186;SDS011;18686;53.084;8.872;2023-04-19T08:29:09;0.82;;;0.80;;
32186;SDS011;18686;53.084;8.872;2023-04-19T08:31:37;2.10;;;0.90;;
32186;SDS011;18686;53.084;8.872;2023-04-19T08:34:05;1.40;;;0.82;;
32186;SDS011;18686;53.084;8.872;2023-04-19T08:36:33;1.50;;;0.90;;
32186;SDS011;18686;53.084;8.872;2023-04-19T08:39:14;1.75;;;0.90;;
32186;SDS011;18686;53.084;8.872;2023-04-19T08:41:59;1.95;;;0.80;;
32186;SDS011;18686;53.084;8.872;2023-04-19T08:44:43;2.50;;;0.90;;
32186;SDS011;18686;53.084;8.872;2023-04-19T08:47:15;3.35;;;1.10;;
32186;SDS011;18686;53.084;8.872;2023-04-19T08:49:58;1.52;;;1.00;;
32186;SDS011;18686;53.084;8.872;2023-04-19T08:52:45;1.40;;;0.98;;
32186;SDS011;18686;53.084;8.872;2023-04-19T08:55:24;1.45;;;0.70;;
32186;SDS011;18686;53.084;8.872;2023-04-19T08:57:54;2.80;;;1.00;;
32186;SDS011;18686;53.084;8.872;2023-04-19T09:00:23;1.27;;;0.70;;
32186;SDS011;18686;53.084;8.872;2023-04-19T09:02:52;2.88;;;1.05;;
32186;SDS011;18686;53.084;8.872;2023-04-19T09:05:21;3.83;;;1.17;;
32186;SDS011;18686;53.084;8.872;2023-04-19T09:07:49;2.33;;;1.17;;
32186;SDS011;18686;53.084;8.872;2023-04-19T09:10:18;2.33;;;1.15;;
32186;SDS011;18686;53.084;8.872;2023-04-19T09:15:36;1.63;;;1.10;;
32186;SDS011;18686;53.084;8.872;2023-04-19T09:18:05;2.42;;;1.00;;
32186;SDS011;18686;53.084;8.872;2023-04-19T09:20:35;2.03;;;1.10;;
32186;SDS011;18686;53.084;8.872;2023-04-19T09:23:04;3.15;;;0.90;;
32186;SDS011;18686;53.084;8.872;2023-04-19T09:25:33;2.53;;;1.00;;
32186;SDS011;18686;53.084;8.872;2023-04-19T09:28:23;3.42;;;1.35;;
32186;SDS011;18686;53.084;8.872;2023-04-19T09:30:51;0.93;;;0.77;;
32186;SDS011;18686;53.084;8.872;2023-04-19T09:33:32;14.18;;;2.83;;
32186;SDS011;18686;53.084;8.872;2023-04-19T09:36:02;3.13;;;1.30;;
32186;SDS011;18686;53.084;8.872;2023-04-19T09:38:32;0.60;;;0.60;;
32186;SDS011;18686;53.084;8.872;2023-04-19T09:41:13;4.03;;;1.27;;
32186;SDS011;18686;53.084;8.872;2023-04-19T09:43:43;4.28;;;1.70;;
32186;SDS011;18686;53.084;8.872;2023-04-19T09:46:32;2.35;;;1.05;;
32186;SDS011;18686;53.084;8.872;2023-04-19T09:52:12;28.83;;;5.25;;
32186;SDS011;18686;53.084;8.872;2023-04-19T09:54:41;12.73;;;2.15;;
32186;SDS011;18686;53.084;8.872;2023-04-19T09:57:10;11.27;;;2.45;;
32186;SDS011;18686;53.084;8.872;2023-04-19T09:59:40;6.47;;;1.30;;
32186;SDS011;18686;53.084;8.872;2023-04-19T10:02:08;3.35;;;1.40;;
32186;SDS011;18686;53.084;8.872;2023-04-19T10:04:38;3.20;;;1.65;;
32186;SDS011;18686;53.084;8.872;2023-04-19T10:07:28;3.25;;;1.00;;
32186;SDS011;18686;53.084;8.872;2023-04-19T10:09:59;1.33;;;0.77;;
32186;SDS011;18686;53.084;8.872;2023-04-19T10:12:44;2.70;;;0.90;;
32186;SDS011;18686;53.084;8.872;2023-04-19T10:15:20;3.33;;;0.90;;
32186;SDS011;18686;53.084;8.872;2023-04-19T10:17:49;7.72;;;1.00;;
32186;SDS011;18686;53.084;8.872;2023-04-19T10:20:19;5.03;;;0.90;;
32186;SDS011;18686;53.084;8.872;2023-04-19T10:22:50;2.75;;;0.80;;
32186;SDS011;18686;53.084;8.872;2023-04-19T10:25:19;3.72;;;0.65;;
32186;SDS011;18686;53.084;8.872;2023-04-19T10:27:56;8.15;;;1.25;;
32186;SDS011;18686;53.084;8.872;2023-04-19T10:30:26;2.67;;;1.00;;
32186;SDS011;18686;53.084;8.872;2023-04-19T10:32:55;1.02;;;0.60;;
32186;SDS011;18686;53.084;8.872;2023-04-19T10:35:25;2.85;;;0.80;;
32186;SDS011;18686;53.084;8.872;2023-04-19T10:38:01;2.90;;;0.80;;
32186;SDS011;18686;53.084;8.872;2023-04-19T10:40:53;17.42;;;2.10;;
32186;SDS011;18686;53.084;8.872;2023-04-19T10:43:25;2.15;;;0.80;;
32186;SDS011;18686;53.084;8.872;2023-04-19T10:45:57;3.63;;;1.10;;
32186;SDS011;18686;53.084;8.872;2023-04-19T10:48:30;1.35;;;0.80;;
32186;SDS011;18686;53.084;8.872;2023-04-19T10:51:00;2.65;;;0.82;;
32186;SDS011;18686;53.084;8.872;2023-04-19T10:53:42;1.75;;;0.77;;
32186;SDS011;18686;53.084;8.872;2023-04-19T10:56:15;2.53;;;0.70;;
32186;SDS011;18686;53.084;8.872;2023-04-19T11:01:51;1.58;;;0.95;;
32186;SDS011;18686;53.084;8.872;2023-04-19T11:07:36;1.70;;;0.73;;
32186;SDS011;18686;53.084;8.872;2023-04-19T11:12:40;1.90;;;0.80;;
32186;SDS011;18686;53.084;8.872;2023-04-19T11:15:09;2.40;;;0.90;;
32186;SDS011;18686;53.084;8.872;2023-04-19T11:17:39;2.75;;;0.60;;
32186;SDS011;18686;53.084;8.872;2023-04-19T11:20:08;4.45;;;0.90;;
32186;SDS011;18686;53.084;8.872;2023-04-19T11:22:38;1.20;;;0.70;;
32186;SDS011;18686;53.084;8.872;2023-04-19T11:25:07;1.08;;;0.68;;
32186;SDS011;18686;53.084;8.872;2023-04-19T11:27:37;1.23;;;0.70;;
32186;SDS011;18686;53.084;8.872;2023-04-19T11:30:07;5.75;;;0.98;;
32186;SDS011;18686;53.084;8.872;2023-04-19T11:32:36;2.47;;;1.13;;
32186;SDS011;18686;53.084;8.872;2023-04-19T11:35:11;1.98;;;1.00;;
32186;SDS011;18686;53.084;8.872;2023-04-19T11:37:39;1.15;;;0.75;;
32186;SDS011;18686;53.084;8.872;2023-04-19T11:40:07;1.85;;;0.80;;
32186;SDS011;18686;53.084;8.872;2023-04-19T11:42:42;2.63;;;0.93;;
32186;SDS011;18686;53.084;8.872;2023-04-19T11:45:25;1.83;;;0.90;;
32186;SDS011;18686;53.084;8.872;2023-04-19T11:48:01;2.45;;;0.98;;
32186;SDS011;18686;53.084;8.872;2023-04-19T11:50:33;1.20;;;0.95;;
32186;SDS011;18686;53.084;8.872;2023-04-19T11:53:08;4.10;;;0.98;;
32186;SDS011;18686;53.084;8.872;2023-04-19T11:55:40;2.85;;;1.00;;
32186;SDS011;18686;53.084;8.872;2023-04-19T11:58:21;1.17;;;0.80;;
32186;SDS011;18686;53.084;8.872;2023-04-19T12:00:52;1.67;;;0.70;;
32186;SDS011;18686;53.084;8.872;2023-04-19T12:03:22;1.80;;;0.80;;
32186;SDS011;18686;53.084;8.872;2023-04-19T12:05:53;1.63;;;1.20;;
32186;SDS011;18686;53.084;8.872;2023-04-19T12:08:31;3.17;;;0.95;;
32186;SDS011;18686;53.084;8.872;2023-04-19T12:11:01;2.70;;;0.95;;
32186;SDS011;18686;53.084;8.872;2023-04-19T12:13:31;2.35;;;1.20;;
32186;SDS011;18686;53.084;8.872;2023-04-19T12:15:59;4.20;;;1.00;;
32186;SDS011;18686;53.084;8.872;2023-04-19T12:18:41;1.65;;;1.00;;
32186;SDS011;18686;53.084;8.872;2023-04-19T12:21:11;2.20;;;1.05;;
32186;SDS011;18686;53.084;8.872;2023-04-19T12:23:53;4.70;;;1.23;;
32186;SDS011;18686;53.084;8.872;2023-04-19T12:26:22;1.77;;;0.95;;
32186;SDS011;18686;53.084;8.872;2023-04-19T12:28:53;1.80;;;1.30;;
32186;SDS011;18686;53.084;8.872;2023-04-19T12:31:21;2.83;;;1.10;;
32186;SDS011;18686;53.084;8.872;2023-04-19T12:33:51;4.68;;;0.98;;
32186;SDS011;18686;53.084;8.872;2023-04-19T12:36:19;2.47;;;1.20;;
32186;SDS011;18686;53.084;8.872;2023-04-19T12:38:48;1.60;;;0.85;;
32186;SDS011;18686;53.084;8.872;2023-04-19T12:41:16;1.55;;;0.95;;
32186;SDS011;18686;53.084;8.872;2023-04-19T12:43:44;2.42;;;0.95;;
32186;SDS011;18686;53.084;8.872;2023-04-19T12:46:13;3.72;;;1.10;;
32186;SDS011;18686;53.084;8.872;2023-04-19T12:48:42;2.90;;;1.30;;
32186;SDS011;18686;53.084;8.872;2023-04-19T12:51:11;7.78;;;1.33;;
32186;SDS011;18686;53.084;8.872;2023-04-19T12:53:40;2.75;;;1.00;;
32186;SDS011;18686;53.084;8.872;2023-04-19T12:56:08;4.25;;;1.30;;
32186;SDS011;18686;53.084;8.872;2023-04-19T12:58:37;2.45;;;0.82;;
32186;SDS011;18686;53.084;8.872;2023-04-19T13:01:05;2.78;;;1.20;;
32186;SDS011;18686;53.084;8.872;2023-04-19T13:03:34;2.60;;;1.20;;
32186;SDS011;18686;53.084;8.872;2023-04-19T13:06:03;1.73;;;1.02;;
32186;SDS011;18686;53.084;8.872;2023-04-19T13:08:34;2.63;;;1.40;;
32186;SDS011;18686;53.084;8.872;2023-04-19T13:11:11;2.28;;;1.00;;
32186;SDS011;18686;53.084;8.872;2023-04-19T13:13:40;5.80;;;1.50;;
32186;SDS011;18686;53.084;8.872;2023-04-19T13:16:08;2.28;;;1.20;;
32186;SDS011;18686;53.084;8.872;2023-04-19T13:18:37;2.75;;;1.30;;
32186;SDS011;18686;53.084;8.872;2023-04-19T13:21:05;4.10;;;1.30;;
32186;SDS011;18686;53.084;8.872;2023-04-19T13:23:35;1.88;;;1.40;;
32186;SDS011;18686;53.084;8.872;2023-04-19T13:26:03;3.80;;;1.33;;
32186;SDS011;18686;53.084;8.872;2023-04-19T13:28:32;3.05;;;1.15;;
32186;SDS011;18686;53.084;8.872;2023-04-19T13:31:02;4.18;;;1.40;;
32186;SDS011;18686;53.084;8.872;2023-04-19T13:33:31;4.47;;;1.58;;
32186;SDS011;18686;53.084;8.872;2023-04-19T13:35:59;2.60;;;1.20;;
32186;SDS011;18686;53.084;8.872;2023-04-19T13:38:27;4.45;;;1.73;;
32186;SDS011;18686;53.084;8.872;2023-04-19T13:40:57;3.22;;;2.55;;
32186;SDS011;18686;53.084;8.872;2023-04-19T13:43:25;3.25;;;1.25;;
32186;SDS011;18686;53.084;8.872;2023-04-19T13:45:53;3.47;;;1.50;;
32186;SDS011;18686;53.084;8.872;2023-04-19T13:48:22;6.07;;;1.35;;
32186;SDS011;18686;53.084;8.872;2023-04-19T13:50:52;4.45;;;1.50;;
32186;SDS011;18686;53.084;8.872;2023-04-19T13:53:21;6.57;;;1.40;;
32186;SDS011;18686;53.084;8.872;2023-04-19T13:55:50;2.30;;;1.38;;
32186;SDS011;18686;53.084;8.872;2023-04-19T13:58:19;6.18;;;1.60;;
32186;SDS011;18686;53.084;8.872;2023-04-19T14:00:50;1.90;;;1.70;;
32186;SDS011;18686;53.084;8.872;2023-04-19T14:03:20;3.28;;;2.00;;
32186;SDS011;18686;53.084;8.872;2023-04-19T14:05:48;4.95;;;1.58;;
32186;SDS011;18686;53.084;8.872;2023-04-19T14:08:17;5.40;;;1.98;;
32186;SDS011;18686;53.084;8.872;2023-04-19T14:10:45;6.05;;;2.28;;
32186;SDS011;18686;53.084;8.872;2023-04-19T14:13:13;8.15;;;2.95;;
32186;SDS011;18686;53.084;8.872;2023-04-19T14:15:43;4.88;;;1.85;;
32186;SDS011;18686;53.084;8.872;2023-04-19T14:18:11;6.00;;;2.22;;
32186;SDS011;18686;53.084;8.872;2023-04-19T14:20:39;4.97;;;2.42;;
32186;SDS011;18686;53.084;8.872;2023-04-19T14:23:08;3.60;;;1.90;;
32186;SDS011;18686;53.084;8.872;2023-04-19T14:25:36;7.93;;;1.90;;
32186;SDS011;18686;53.084;8.872;2023-04-19T14:28:04;5.55;;;3.13;;
32186;SDS011;18686;53.084;8.872;2023-04-19T14:30:33;4.13;;;2.25;;
32186;SDS011;18686;53.084;8.872;2023-04-19T14:33:02;6.45;;;2.10;;
32186;SDS011;18686;53.084;8.872;2023-04-19T14:35:30;7.50;;;2.10;;
32186;SDS011;18686;53.084;8.872;2023-04-19T14:37:59;4.03;;;1.80;;
32186;SDS011;18686;53.084;8.872;2023-04-19T14:40:27;3.45;;;2.22;;
32186;SDS011;18686;53.084;8.872;2023-04-19T14:42:55;3.53;;;1.92;;
32186;SDS011;18686;53.084;8.872;2023-04-19T14:45:23;9.02;;;2.17;;
32186;SDS011;18686;53.084;8.872;2023-04-19T14:47:52;5.28;;;2.63;;
32186;SDS011;18686;53.084;8.872;2023-04-19T14:50:22;15.35;;;2.30;;
32186;SDS011;18686;53.084;8.872;2023-04-19T14:52:50;5.93;;;2.10;;
32186;SDS011;18686;53.084;8.872;2023-04-19T14:55:20;6.10;;;2.17;;
32186;SDS011;18686;53.084;8.872;2023-04-19T14:57:50;6.50;;;2.38;;
32186;SDS011;18686;53.084;8.872;2023-04-19T15:00:18;8.40;;;5.05;;
32186;SDS011;18686;53.084;8.872;2023-04-19T15:02:47;3.05;;;2.10;;
32186;SDS011;18686;53.084;8.872;2023-04-19T15:05:15;4.65;;;2.20;;
32186;SDS011;18686;53.084;8.872;2023-04-19T15:07:45;5.53;;;1.92;;
32186;SDS011;18686;53.084;8.872;2023-04-19T15:10:13;3.33;;;2.00;;
32186;SDS011;18686;53.084;8.872;2023-04-19T15:12:44;4.75;;;1.95;;
32186;SDS011;18686;53.084;8.872;2023-04-19T15:15:12;6.00;;;1.70;;
32186;SDS011;18686;53.084;8.872;2023-04-19T15:17:41;3.05;;;1.60;;
32186;SDS011;18686;53.084;8.872;2023-04-19T15:20:09;4.40;;;1.95;;
32186;SDS011;18686;53.084;8.872;2023-04-19T15:22:38;2.50;;;1.58;;
32186;SDS011;18686;53.084;8.872;2023-04-19T15:25:08;5.10;;;1.90;;